Time;durP1;ratioP1;P1;durP2;ratioP2;P2;SDS_P1;SDS_P2;PMS_P1;PMS_P2;Temp;Humidity;BMP_temperature;BMP_pressure;BME280_temperature;BME280_humidity;BME280_pressure;Samples;Min_cycle;Max_cycle;Signal;HPM_P1;HPM_P2
2022/08/22 00:00:12;;;;;;;7.40;3.10;;;;;;;15.81;83.31;95770.66;5012982;28;24439;-72
2022/08/22 00:02:47;;;;;;;4.97;3.22;;;;;;;15.68;84.98;95773.47;5010003;28;24559;-72
2022/08/22 00:05:27;;;;;;;6.18;2.78;;;;;;;15.72;84.45;95771.41;5011573;28;24468;-72
2022/08/22 00:08:02;;;;;;;6.30;3.28;;;;;;;15.74;84.31;95766.88;5015173;28;24446;-72
2022/08/22 00:10:39;;;;;;;7.85;3.20;;;;;;;15.73;84.92;95775.69;5010739;28;24452;-72
2022/08/22 00:13:11;;;;;;;5.35;3.30;;;;;;;15.63;86.29;95766.91;5015670;28;24447;-71
2022/08/22 00:15:42;;;;;;;5.13;2.97;;;;;;;15.60;86.44;95767.16;5010968;28;24460;-72
2022/08/22 00:18:13;;;;;;;4.05;3.00;;;;;;;15.61;87.06;95761.00;5011178;28;24451;-72
2022/08/22 00:20:48;;;;;;;4.13;3.13;;;;;;;15.58;88.40;95759.47;5013041;28;24810;-72
2022/08/22 00:23:21;;;;;;;4.20;2.90;;;;;;;15.57;87.72;95757.81;5011321;28;24440;-71
2022/08/22 00:26:00;;;;;;;6.10;3.45;;;;;;;15.50;86.16;95756.69;5016335;28;24810;-72
2022/08/22 00:28:31;;;;;;;5.18;3.17;;;;;;;15.59;86.63;95753.28;5016166;28;24526;-72
2022/08/22 00:31:02;;;;;;;3.58;3.17;;;;;;;15.77;85.26;95756.19;5012685;28;24809;-71
2022/08/22 00:33:39;;;;;;;4.50;3.40;;;;;;;15.84;84.96;95751.28;5012306;28;24944;-72
2022/08/22 00:36:15;;;;;;;4.87;3.20;;;;;;;15.83;84.24;95753.06;5022406;28;24438;-72
2022/08/22 00:38:46;;;;;;;5.00;3.13;;;;;;;15.70;84.76;95744.59;5012493;28;24506;-71
2022/08/22 00:41:35;;;;;;;4.20;3.20;;;;;;;15.54;85.20;95750.25;5014116;28;24515;-71
2022/08/22 00:44:30;;;;;;;4.10;3.05;;;;;;;15.41;86.09;95747.81;5013688;28;24440;-72
2022/08/22 00:47:20;;;;;;;5.35;3.20;;;;;;;15.44;86.13;95744.13;5010729;28;24552;-72
2022/08/22 00:50:26;;;;;;;4.05;2.92;;;;;;;15.30;87.63;95744.44;5009907;28;24456;-72
2022/08/22 00:53:11;;;;;;;4.50;2.90;;;;;;;15.39;86.75;95738.47;4987536;28;24431;-72
2022/08/22 00:56:01;;;;;;;6.07;2.80;;;;;;;15.45;87.14;95744.00;5004911;28;24436;-72
2022/08/22 00:59:06;;;;;;;4.35;3.05;;;;;;;15.39;86.51;95743.69;5009733;28;24463;-72
2022/08/22 01:01:37;;;;;;;5.07;3.35;;;;;;;15.27;86.87;95745.50;5013842;28;24440;-71
2022/08/22 01:04:34;;;;;;;4.95;3.08;;;;;;;15.31;86.10;95736.47;5015236;28;24429;-72
2022/08/22 01:07:15;;;;;;;4.30;3.00;;;;;;;15.47;84.85;95747.31;5009700;28;24807;-72
2022/08/22 01:09:51;;;;;;;4.72;2.90;;;;;;;15.60;84.86;95743.69;5010214;28;24444;-72
2022/08/22 01:12:40;;;;;;;3.93;2.90;;;;;;;15.60;84.52;95744.50;5019316;28;24447;-72
2022/08/22 01:15:11;;;;;;;3.85;2.80;;;;;;;15.59;84.57;95745.47;5009305;28;24444;-72
2022/08/22 01:18:26;;;;;;;4.35;2.60;;;;;;;15.57;84.45;95738.72;5021704;28;24459;-72
2022/08/22 01:21:37;;;;;;;4.32;2.60;;;;;;;15.39;85.72;95734.06;5007301;28;24432;-72
2022/08/22 01:28:00;;;;;;;4.15;2.97;;;;;;;15.37;85.90;95729.94;5016550;28;24447;-71
2022/08/22 01:30:46;;;;;;;6.15;2.95;;;;;;;15.19;87.16;95734.88;5003506;28;24460;-71
2022/08/22 01:34:14;;;;;;;4.38;2.90;;;;;;;15.06;87.94;95736.84;5020661;28;24799;-71
2022/08/22 01:37:13;;;;;;;3.70;3.07;;;;;;;15.04;88.64;95738.72;5005202;28;24806;-71
2022/08/22 01:39:59;;;;;;;4.53;3.33;;;;;;;15.07;88.26;95731.47;5013837;28;24440;-71
2022/08/22 01:42:53;;;;;;;4.50;3.00;;;;;;;15.14;87.42;95730.03;5016987;28;24436;-71
2022/08/22 01:46:10;;;;;;;3.33;2.70;;;;;;;15.19;87.03;95730.47;5012482;28;24457;-71
2022/08/22 01:48:44;;;;;;;4.35;2.88;;;;;;;15.15;86.56;95731.69;5004555;28;24444;-71
2022/08/22 01:51:17;;;;;;;5.15;3.00;;;;;;;15.07;86.69;95731.47;5010936;28;24460;-71
2022/08/22 01:53:55;;;;;;;4.68;2.88;;;;;;;14.91;88.74;95739.72;5013739;28;24571;-72
2022/08/22 01:56:25;;;;;;;4.07;3.17;;;;;;;14.82;89.08;95737.03;5011892;28;24445;-72
2022/08/22 01:58:57;;;;;;;7.55;3.38;;;;;;;14.76;90.22;95739.19;5009743;28;24436;-72
2022/08/22 02:01:36;;;;;;;4.50;3.10;;;;;;;14.77;90.26;95738.22;5005520;28;24523;-71
2022/08/22 02:04:07;;;;;;;6.60;2.92;;;;;;;14.76;90.86;95726.16;5008548;28;24436;-72
2022/08/22 02:06:44;;;;;;;3.80;2.92;;;;;;;14.90;89.39;95732.00;5000953;28;22353;-72
2022/08/22 02:09:26;;;;;;;5.65;3.28;;;;;;;15.01;89.59;95726.75;5013903;28;24444;-71
2022/08/22 02:11:55;;;;;;;4.27;3.10;;;;;;;14.84;91.44;95722.09;5019764;28;25074;-72
2022/08/22 02:14:40;;;;;;;4.68;2.80;;;;;;;14.75;91.87;95721.84;5010910;28;24835;-72
2022/08/22 02:17:14;;;;;;;5.78;2.88;;;;;;;14.66;92.30;95719.19;5010168;28;24447;-72
2022/08/22 02:19:54;;;;;;;6.63;3.22;;;;;;;14.59;92.91;95725.81;5013247;28;24436;-71
2022/08/22 02:22:30;;;;;;;4.95;3.15;;;;;;;14.56;92.95;95719.06;5013993;28;24432;-71
2022/08/22 02:25:08;;;;;;;4.45;2.90;;;;;;;14.68;91.77;95722.47;5007806;28;24436;-71
2022/08/22 02:27:43;;;;;;;3.88;3.15;;;;;;;14.71;91.25;95719.63;5011547;28;24487;-71
2022/08/22 02:30:14;;;;;;;4.30;3.05;;;;;;;14.58;92.89;95716.38;5010671;28;24487;-71
2022/08/22 02:32:55;;;;;;;3.05;2.53;;;;;;;14.57;92.80;95719.91;5012879;28;24428;-71
2022/08/22 02:35:29;;;;;;;6.57;2.58;;;;;;;14.58;92.80;95719.78;5010654;28;24437;-71
2022/08/22 02:38:05;;;;;;;3.47;3.00;;;;;;;14.57;92.47;95720.72;5012072;28;25001;-71
2022/08/22 02:40:38;;;;;;;5.25;3.10;;;;;;;14.51;92.71;95716.00;5004189;28;24451;-72
2022/08/22 02:43:14;;;;;;;6.43;3.35;;;;;;;14.52;92.02;95721.09;5011800;28;25137;-71
2022/08/22 02:45:46;;;;;;;4.65;3.05;;;;;;;14.50;92.00;95714.38;5010226;28;24798;-71
2022/08/22 02:48:21;;;;;;;5.15;3.20;;;;;;;14.55;92.03;95711.38;5013150;28;24454;-71
2022/08/22 02:50:55;;;;;;;4.82;3.30;;;;;;;14.62;91.42;95699.53;5010168;28;24452;-71
2022/08/22 02:53:27;;;;;;;4.18;3.10;;;;;;;14.69;91.13;95706.72;5010362;28;24583;-71
2022/08/22 02:56:02;;;;;;;4.27;3.23;;;;;;;14.85;89.72;95708.91;5012186;28;24823;-71
2022/08/22 02:58:38;;;;;;;4.80;3.22;;;;;;;14.77;89.86;95706.13;5005901;28;24441;-71
2022/08/22 03:01:34;;;;;;;4.93;3.05;;;;;;;14.68;88.69;95709.44;5010559;28;24443;-71
2022/08/22 03:04:45;;;;;;;4.00;2.90;;;;;;;14.52;89.70;95700.25;5010258;28;24431;-72
2022/08/22 03:07:22;;;;;;;3.75;2.70;;;;;;;14.38;90.94;95705.69;4996647;28;24480;-71
2022/08/22 03:09:56;;;;;;;4.50;3.28;;;;;;;14.29;91.61;95701.22;5011209;28;24981;-71
2022/08/22 03:12:30;;;;;;;3.83;3.30;;;;;;;14.33;91.17;95693.97;5010548;28;24451;-73
2022/08/22 03:15:05;;;;;;;4.03;3.05;;;;;;;14.08;92.29;95688.06;5009808;28;24490;-73
2022/08/22 03:17:38;;;;;;;3.40;3.00;;;;;;;14.04;92.77;95692.69;5010216;28;24499;-71
2022/08/22 03:20:12;;;;;;;3.38;2.92;;;;;;;13.94;93.81;95698.72;5005377;28;24436;-71
2022/08/22 03:22:46;;;;;;;3.80;2.90;;;;;;;13.82;96.33;95692.69;5011333;28;24431;-71
2022/08/22 03:25:23;;;;;;;5.35;3.20;;;;;;;13.85;96.38;95697.69;5011274;28;24432;-70
2022/08/22 03:27:57;;;;;;;4.65;3.17;;;;;;;13.89;95.05;95699.09;5008473;28;24443;-71
2022/08/22 03:30:33;;;;;;;4.37;2.97;;;;;;;13.94;94.39;95696.13;5007541;28;24448;-71
2022/08/22 03:33:15;;;;;;;4.07;3.00;;;;;;;13.91;94.85;95694.63;5011690;28;24803;-71
2022/08/22 03:35:58;;;;;;;4.43;2.95;;;;;;;13.89;95.85;95696.50;5006885;28;25000;-70
2022/08/22 03:38:38;;;;;;;5.15;3.28;;;;;;;13.93;94.94;95692.69;5012699;28;24544;-71
2022/08/22 03:41:30;;;;;;;4.07;3.05;;;;;;;13.97;93.96;95691.50;5007719;28;24460;-71
2022/08/22 03:44:24;;;;;;;4.40;2.85;;;;;;;13.86;94.50;95693.28;5009614;28;24440;-71
2022/08/22 03:47:14;;;;;;;5.53;3.43;;;;;;;13.67;97.50;95693.88;5004848;28;24444;-71
2022/08/22 03:49:59;;;;;;;4.72;2.88;;;;;;;13.65;97.79;95695.78;5011348;28;24989;-71
2022/08/22 03:55:40;;;;;;;4.68;3.38;;;;;;;13.65;98.48;95706.19;5017296;28;24863;-71
2022/08/22 03:58:36;;;;;;;4.25;3.17;;;;;;;13.62;98.49;95703.81;5015703;28;24838;-71
2022/08/22 04:01:32;;;;;;;6.82;3.20;;;;;;;13.62;98.66;95699.44;5003710;28;24982;-71
2022/08/22 04:04:30;;;;;;;4.88;2.97;;;;;;;13.68;97.65;95705.94;5008550;28;25008;-71
2022/08/22 04:07:42;;;;;;;5.53;3.20;;;;;;;13.74;96.81;95711.50;5006229;28;24506;-71
2022/08/22 04:10:35;;;;;;;3.50;3.00;;;;;;;13.79;96.75;95717.22;5005877;28;24452;-71
2022/08/22 04:13:23;;;;;;;6.60;3.00;;;;;;;13.85;95.97;95717.69;5006746;28;24522;-71
2022/08/22 04:16:14;;;;;;;5.53;3.00;;;;;;;13.77;96.04;95720.88;5013679;28;24494;-71
2022/08/22 04:19:12;;;;;;;4.32;2.72;;;;;;;13.87;95.59;95723.59;5013803;28;24822;-71
2022/08/22 04:22:03;;;;;;;4.28;3.17;;;;;;;13.87;95.67;95719.22;5004828;28;24447;-70
2022/08/22 04:24:52;;;;;;;6.10;2.92;;;;;;;13.90;95.55;95718.97;5004145;28;24476;-70
2022/08/22 04:27:27;;;;;;;4.00;3.00;;;;;;;13.92;95.59;95724.91;5011117;28;24476;-71
2022/08/22 04:30:00;;;;;;;4.25;3.05;;;;;;;13.93;95.28;95721.34;5017143;28;24521;-71
2022/08/22 04:32:35;;;;;;;3.88;3.00;;;;;;;13.90;95.34;95725.97;5012729;28;24444;-71
2022/08/22 04:35:09;;;;;;;8.05;3.22;;;;;;;13.93;94.65;95728.31;5012344;28;24432;-71
2022/08/22 04:37:45;;;;;;;3.20;2.60;;;;;;;13.89;93.63;95722.53;5006846;28;24451;-72
2022/08/22 04:40:16;;;;;;;4.72;2.92;;;;;;;13.94;91.48;95722.16;5021871;28;24433;-71
2022/08/22 04:42:50;;;;;;;3.92;2.67;;;;;;;13.90;91.48;95711.16;5014298;28;25017;-72
2022/08/22 04:45:22;;;;;;;5.00;2.72;;;;;;;13.82;91.47;95721.34;5016097;28;24439;-71
2022/08/22 04:47:54;;;;;;;5.15;3.22;;;;;;;13.61;92.65;95717.75;5014319;28;24449;-71
2022/08/22 04:50:28;;;;;;;6.35;3.17;;;;;;;13.48;94.67;95723.06;5012605;28;24461;-71
2022/08/22 04:53:25;;;;;;;3.60;3.17;;;;;;;13.36;95.85;95721.41;5008793;28;24443;-71
2022/08/22 04:56:02;;;;;;;4.47;3.50;;;;;;;13.32;96.01;95723.41;5012902;28;24439;-71
2022/08/22 04:58:39;;;;;;;3.70;2.58;;;;;;;13.25;95.53;95723.00;5006421;28;24439;-71
2022/08/22 05:01:13;;;;;;;5.30;3.30;;;;;;;13.19;96.30;95723.44;5007696;28;24439;-71
2022/08/22 05:03:45;;;;;;;4.18;3.00;;;;;;;13.13;97.48;95729.09;5007674;28;24437;-71
2022/08/22 05:06:18;;;;;;;4.28;3.30;;;;;;;13.19;98.32;95725.19;5012295;28;24443;-74
2022/08/22 05:08:47;;;;;;;5.68;3.47;;;;;;;13.24;99.15;95729.16;5007461;28;24846;-74
2022/08/22 05:11:18;;;;;;;6.00;3.50;;;;;;;13.30;99.94;95731.28;5016087;28;24993;-72
2022/08/22 05:13:49;;;;;;;5.90;3.55;;;;;;;13.38;100.00;95735.09;5006801;28;24432;-72
2022/08/22 05:16:21;;;;;;;4.93;3.17;;;;;;;13.53;100.00;95736.56;5015731;28;24799;-72
2022/08/22 05:18:51;;;;;;;6.88;3.60;;;;;;;13.70;99.86;95737.91;5017503;28;24443;-72
2022/08/22 05:21:24;;;;;;;5.72;3.20;;;;;;;13.83;100.00;95736.03;5015584;28;24432;-72
2022/08/22 05:23:55;;;;;;;6.13;3.35;;;;;;;13.97;100.00;95737.56;5018401;28;24510;-72
2022/08/22 05:26:21;;;;;;;7.78;3.58;;;;;;;14.04;97.18;95741.34;5004111;28;24440;-72
2022/08/22 05:28:50;;;;;;;4.05;3.10;;;;;;;14.12;96.46;95735.53;5012850;28;24436;-76
2022/08/22 05:31:22;;;;;;;4.30;3.25;;;;;;;14.38;98.86;95739.56;5007344;28;24452;-74
2022/08/22 05:33:52;;;;;;;5.05;3.20;;;;;;;14.56;100.00;95737.31;5005924;28;24464;-77
2022/08/22 05:36:24;;;;;;;5.72;3.40;;;;;;;14.58;100.00;95732.81;5006255;28;24428;-76
2022/08/22 05:38:54;;;;;;;6.93;3.35;;;;;;;14.69;98.86;95742.41;5010716;28;25030;-75
2022/08/22 05:41:24;;;;;;;4.22;3.42;;;;;;;14.78;95.76;95739.03;5016624;28;24445;-77
2022/08/22 05:43:52;;;;;;;3.97;3.50;;;;;;;14.93;93.16;95743.03;5017124;28;24443;-78
2022/08/22 05:46:22;;;;;;;4.40;3.60;;;;;;;15.03;89.78;95731.88;5015861;28;24541;-77
2022/08/22 05:48:54;;;;;;;10.65;3.30;;;;;;;15.15;89.42;95731.69;5014069;28;24436;-79
2022/08/22 05:51:26;;;;;;;4.80;3.47;;;;;;;15.30;88.22;95734.81;5015824;28;24445;-77
2022/08/22 05:54:05;;;;;;;6.30;3.42;;;;;;;15.57;90.98;95738.72;5018899;28;25000;-77
2022/08/22 05:56:37;;;;;;;7.20;3.38;;;;;;;15.75;91.09;95739.00;5016046;28;24453;-76
2022/08/22 05:59:13;;;;;;;4.33;3.37;;;;;;;15.92;90.53;95730.56;5015550;28;24444;-75
2022/08/22 06:01:50;;;;;;;5.85;3.95;;;;;;;16.09;90.27;95737.81;5011543;28;24440;-75
2022/08/22 06:04:26;;;;;;;4.65;3.45;;;;;;;16.16;89.17;95735.47;5011593;28;24435;-75
2022/08/22 06:06:57;;;;;;;6.37;3.63;;;;;;;16.41;87.45;95739.44;5011069;28;24452;-75
2022/08/22 06:09:32;;;;;;;8.18;4.18;;;;;;;16.41;89.69;95736.81;5012685;28;24433;-75
2022/08/22 06:12:03;;;;;;;9.25;3.72;;;;;;;16.35;88.21;95740.81;5008539;28;24448;-75
2022/08/22 06:14:39;;;;;;;5.05;3.70;;;;;;;16.53;89.31;95734.91;5006648;28;24511;-75
2022/08/22 06:17:10;;;;;;;5.75;3.60;;;;;;;16.57;87.57;95750.19;5013266;28;24445;-75
2022/08/22 06:19:41;;;;;;;5.32;3.45;;;;;;;16.54;86.41;95740.03;5008007;28;24447;-76
2022/08/22 06:22:10;;;;;;;4.88;3.38;;;;;;;16.35;82.02;95742.56;5010924;28;24420;-77
2022/08/22 06:24:38;;;;;;;4.13;3.30;;;;;;;16.28;80.36;95747.50;5010764;28;24437;-75
2022/08/22 06:27:09;;;;;;;5.07;3.58;;;;;;;16.39;78.78;95747.41;5010662;28;24436;-75
2022/08/22 06:29:39;;;;;;;5.05;3.40;;;;;;;16.58;76.69;95749.25;5003906;28;24456;-77
2022/08/22 06:32:13;;;;;;;4.90;3.22;;;;;;;16.84;77.28;95740.94;5010848;28;24485;-76
2022/08/22 06:34:43;;;;;;;5.55;3.33;;;;;;;16.89;74.29;95746.59;5010893;28;24988;-76
2022/08/22 06:37:17;;;;;;;5.72;3.40;;;;;;;16.75;75.16;95752.22;5011067;28;24443;-75
2022/08/22 06:39:49;;;;;;;5.38;3.65;;;;;;;16.63;75.16;95746.25;5006298;28;24429;-76
2022/08/22 06:42:21;;;;;;;5.97;3.35;;;;;;;16.56;76.41;95752.97;5010907;28;24435;-76
2022/08/22 06:44:53;;;;;;;4.50;3.15;;;;;;;16.87;75.67;95751.13;5010636;28;24468;-76
2022/08/22 06:47:24;;;;;;;6.45;3.42;;;;;;;17.31;73.38;95746.34;5011813;28;24443;-77
2022/08/22 06:49:56;;;;;;;5.03;3.60;;;;;;;17.54;70.72;95755.56;5017082;28;24436;-76
2022/08/22 06:52:27;;;;;;;5.47;3.38;;;;;;;17.59;69.68;95760.38;5006601;28;24456;-75
2022/08/22 06:55:09;;;;;;;4.82;3.25;;;;;;;17.52;69.07;95757.50;5017248;28;24440;-77
2022/08/22 06:57:37;;;;;;;4.93;3.30;;;;;;;17.58;67.51;95764.81;5013733;28;24444;-75
2022/08/22 07:00:09;;;;;;;6.90;3.75;;;;;;;17.88;66.66;95763.00;5018125;28;24884;-76
2022/08/22 07:02:41;;;;;;;6.65;3.22;;;;;;;18.32;64.42;95765.91;5012311;28;25008;-76
2022/08/22 07:05:13;;;;;;;4.55;3.05;;;;;;;18.65;62.55;95763.66;5006882;28;25059;-75
2022/08/22 07:07:41;;;;;;;4.78;3.50;;;;;;;18.70;61.18;95771.94;5012519;28;25008;-76
2022/08/22 07:10:12;;;;;;;4.80;3.80;;;;;;;18.74;60.20;95760.22;5004450;28;24433;-75
2022/08/22 07:12:43;;;;;;;4.53;3.35;;;;;;;18.56;60.74;95763.56;5014017;28;24459;-76
2022/08/22 07:15:13;;;;;;;4.32;3.45;;;;;;;18.59;61.51;95762.47;5012951;28;24448;-76
2022/08/22 07:17:49;;;;;;;5.70;3.58;;;;;;;18.78;62.27;95759.75;5011566;28;24682;-76
2022/08/22 07:20:23;;;;;;;9.00;3.70;;;;;;;19.20;60.88;95764.47;5008711;28;24518;-76
2022/08/22 07:22:57;;;;;;;5.75;3.38;;;;;;;19.46;60.94;95769.78;5013055;28;24837;-77
2022/08/22 07:25:24;;;;;;;8.82;3.33;;;;;;;19.91;59.57;95766.25;5007232;28;24440;-75
2022/08/22 07:28:14;;;;;;;5.00;3.08;;;;;;;20.28;58.40;95765.97;5010497;28;24443;-75
2022/08/22 07:30:52;;;;;;;5.97;3.30;;;;;;;20.65;54.68;95764.03;5007806;28;24439;-76
2022/08/22 07:33:39;;;;;;;4.30;3.20;;;;;;;21.12;54.36;95766.16;5008550;28;24451;-75
2022/08/22 07:36:20;;;;;;;5.50;3.90;;;;;;;21.50;53.07;95759.47;4995187;28;24440;-74
2022/08/22 07:39:00;;;;;;;4.32;2.85;;;;;;;21.93;52.57;95763.59;5004245;28;24432;-74
2022/08/22 07:41:39;;;;;;;6.55;3.13;;;;;;;21.80;50.70;95765.88;5021356;28;24443;-74
2022/08/22 07:44:13;;;;;;;3.75;2.92;;;;;;;21.71;51.44;95766.91;5021752;28;24451;-76
2022/08/22 07:46:47;;;;;;;4.53;3.08;;;;;;;22.18;50.33;95768.88;5014843;28;24440;-74
2022/08/22 07:49:16;;;;;;;9.80;3.80;;;;;;;22.50;50.03;95765.28;5000545;28;24478;-74
2022/08/22 07:51:46;;;;;;;8.95;3.67;;;;;;;22.48;49.69;95763.84;5013277;28;24471;-74
2022/08/22 07:54:17;;;;;;;9.70;3.38;;;;;;;22.55;49.40;95763.00;5016491;28;24446;-74
2022/08/22 07:56:53;;;;;;;5.68;3.28;;;;;;;22.65;49.36;95768.88;5010346;28;24484;-73
2022/08/22 07:59:21;;;;;;;4.22;3.20;;;;;;;22.98;47.96;95773.22;5018700;28;24809;-73
2022/08/22 08:01:52;;;;;;;6.28;3.30;;;;;;;22.83;48.89;95768.63;5008223;28;24429;-73
2022/08/22 08:04:23;;;;;;;5.72;3.20;;;;;;;23.05;47.26;95768.91;5018367;28;24530;-73
2022/08/22 08:06:52;;;;;;;5.13;3.20;;;;;;;23.43;46.26;95772.44;5018388;28;24454;-74
2022/08/22 08:09:21;;;;;;;4.93;2.97;;;;;;;23.75;48.03;95773.25;5021157;28;24460;-73
2022/08/22 08:11:52;;;;;;;6.63;3.20;;;;;;;23.64;44.52;95775.28;5012970;28;24459;-75
2022/08/22 08:14:21;;;;;;;5.63;3.08;;;;;;;24.01;44.59;95776.31;5014607;28;24440;-75
2022/08/22 08:16:56;;;;;;;4.85;3.00;;;;;;;23.96;43.58;95773.41;5016140;28;24833;-76
2022/08/22 08:19:24;;;;;;;5.20;2.97;;;;;;;23.39;45.12;95761.41;5017817;28;24443;-76
2022/08/22 08:21:53;;;;;;;5.10;3.08;;;;;;;23.50;45.71;95770.75;5013685;28;24437;-75
2022/08/22 08:24:26;;;;;;;9.38;4.05;;;;;;;24.00;44.47;95768.56;5014951;28;24815;-76
2022/08/22 08:29:45;;;;;;;5.70;2.92;;;;;;;24.91;39.93;95774.53;5005034;28;24435;-76
2022/08/22 08:32:13;;;;;;;4.65;2.90;;;;;;;24.55;40.08;95762.91;5020296;28;25153;-76
2022/08/22 08:34:42;;;;;;;5.88;2.60;;;;;;;25.14;38.69;95766.47;5012790;28;24439;-76
2022/08/22 08:37:22;;;;;;;6.13;2.70;;;;;;;25.30;38.64;95761.78;5017290;28;24444;-74
2022/08/22 08:39:53;;;;;;;6.15;2.60;;;;;;;25.49;39.27;95763.00;5007160;28;24752;-74
2022/08/22 08:46:06;;;;;;;6.53;2.85;;;;;;;25.70;34.93;95758.72;4980019;28;24574;-75
2022/08/22 08:48:57;;;;;;;4.73;2.90;;;;;;;25.94;35.44;95754.84;5013329;28;24487;-76
2022/08/22 08:51:53;;;;;;;5.43;2.47;;;;;;;26.14;33.79;95760.28;5015359;28;24455;-77
2022/08/22 08:54:42;;;;;;;4.63;2.50;;;;;;;26.25;35.23;95750.00;5018337;28;24501;-76
2022/08/22 08:57:19;;;;;;;4.65;2.40;;;;;;;26.60;35.25;95749.19;5010970;28;24835;-76
2022/08/22 08:59:58;;;;;;;5.15;2.20;;;;;;;26.82;33.45;95750.72;5004491;28;25685;-75
2022/08/22 09:02:49;;;;;;;4.53;2.80;;;;;;;26.94;32.26;95743.00;5012245;28;24436;-75
2022/08/22 09:05:55;;;;;;;4.72;2.60;;;;;;;27.03;31.97;95750.63;5012086;28;24475;-76
2022/08/22 09:09:02;;;;;;;4.28;2.40;;;;;;;27.05;31.56;95745.09;5010794;28;24443;-76
2022/08/22 09:12:01;;;;;;;5.60;2.70;;;;;;;27.10;31.58;95739.16;4933422;29;24434;-73
2022/08/22 09:14:49;;;;;;;4.28;2.40;;;;;;;26.93;32.43;95744.03;5001401;28;24486;-74
2022/08/22 09:17:40;;;;;;;3.67;2.30;;;;;;;26.48;33.82;95741.78;5010179;28;24447;-74
2022/08/22 09:20:30;;;;;;;3.33;2.40;;;;;;;26.06;34.54;95748.00;5009060;28;24504;-74
2022/08/22 09:23:18;;;;;;;4.15;2.42;;;;;;;25.68;34.63;95747.47;5002184;28;24600;-75
2022/08/22 09:25:50;;;;;;;3.22;2.55;;;;;;;25.85;34.55;95743.56;5006115;28;24432;-75
2022/08/22 09:28:22;;;;;;;8.68;2.63;;;;;;;26.19;34.10;95748.09;5013422;28;24814;-75
2022/08/22 09:31:10;;;;;;;4.82;2.20;;;;;;;26.14;34.76;95747.88;5013462;28;25052;-76
2022/08/22 09:33:51;;;;;;;3.35;2.35;;;;;;;25.90;34.22;95750.94;5004884;28;24459;-75
2022/08/22 09:36:24;;;;;;;4.90;2.27;;;;;;;25.92;34.00;95748.91;5009978;28;24434;-77
2022/08/22 09:38:56;;;;;;;5.57;2.30;;;;;;;25.53;34.52;95751.00;5011807;28;24440;-75
2022/08/22 09:41:37;;;;;;;5.13;2.67;;;;;;;25.41;35.47;95760.47;5011719;28;24434;-75
2022/08/22 09:44:16;;;;;;;4.28;2.55;;;;;;;25.69;34.94;95749.91;5007802;28;24446;-76
2022/08/22 09:46:57;;;;;;;5.00;2.72;;;;;;;25.59;34.27;95749.44;5005369;28;25027;-76
2022/08/22 09:49:35;;;;;;;2.92;2.20;;;;;;;25.45;34.80;95743.19;5010995;28;24457;-75
2022/08/22 09:52:08;;;;;;;4.07;2.42;;;;;;;25.15;34.59;95746.94;5011873;28;24483;-76
2022/08/22 09:54:40;;;;;;;3.75;2.30;;;;;;;25.05;34.46;95749.84;5010669;28;24797;-75
2022/08/22 09:57:18;;;;;;;5.32;2.60;;;;;;;25.23;33.48;95747.63;5003468;28;24437;-76
2022/08/22 10:00:01;;;;;;;5.60;2.47;;;;;;;25.00;33.80;95744.31;5003510;28;24424;-76
2022/08/22 10:02:35;;;;;;;3.78;2.00;;;;;;;24.64;33.18;95753.03;5011110;28;24435;-76
2022/08/22 10:05:11;;;;;;;3.60;2.20;;;;;;;24.96;35.19;95753.63;5008010;28;24454;-76
2022/08/22 10:08:08;;;;;;;3.97;2.40;;;;;;;25.06;34.73;95749.66;5002063;28;24444;-75
2022/08/22 10:11:00;;;;;;;4.18;2.90;;;;;;;25.15;34.43;95746.94;5006301;28;24456;-76
2022/08/22 10:13:41;;;;;;;4.07;2.42;;;;;;;25.87;35.49;95748.66;5010913;28;24448;-75
2022/08/22 10:16:19;;;;;;;3.72;2.70;;;;;;;26.53;32.58;95743.84;5012726;28;24451;-76
2022/08/22 10:18:53;;;;;;;4.47;2.75;;;;;;;26.90;32.33;95749.72;5008239;28;24431;-75
2022/08/22 10:21:30;;;;;;;5.15;2.80;;;;;;;26.75;31.54;95749.88;5010573;28;24497;-75
2022/08/22 10:24:01;;;;;;;4.20;2.70;;;;;;;26.60;33.28;95746.53;5011309;28;24420;-76
2022/08/22 10:26:33;;;;;;;6.47;2.75;;;;;;;26.91;33.03;95749.53;5010660;28;24428;-75
2022/08/22 10:29:27;;;;;;;5.82;2.63;;;;;;;26.97;31.79;95738.09;5005711;28;24436;-76
2022/08/22 10:32:00;;;;;;;5.72;2.90;;;;;;;27.05;32.29;95729.13;5008977;28;24804;-75
2022/08/22 10:34:35;;;;;;;6.05;3.00;;;;;;;26.53;31.52;95725.25;5007872;28;24425;-75
2022/08/22 10:37:15;;;;;;;4.45;2.63;;;;;;;26.19;32.07;95728.69;5007156;28;24444;-75
2022/08/22 10:39:47;;;;;;;7.68;2.90;;;;;;;26.37;31.80;95729.03;5011092;28;24516;-75
2022/08/22 10:42:26;;;;;;;8.68;2.75;;;;;;;26.26;32.40;95722.41;5010581;28;24831;-76
2022/08/22 10:45:08;;;;;;;5.32;2.78;;;;;;;27.29;33.63;95722.47;5005943;28;24428;-75
2022/08/22 10:47:40;;;;;;;6.07;2.55;;;;;;;28.03;29.95;95720.69;5006881;28;24810;-75
2022/08/22 10:50:17;;;;;;;5.00;2.30;;;;;;;27.71;30.18;95717.81;5010260;28;24476;-76
2022/08/22 10:52:48;;;;;;;4.15;2.47;;;;;;;27.15;31.16;95715.50;5010590;28;24448;-75
2022/08/22 10:55:20;;;;;;;5.55;2.45;;;;;;;26.95;31.23;95718.06;5010574;28;24432;-75
2022/08/22 10:58:00;;;;;;;4.32;2.60;;;;;;;26.87;31.67;95712.91;5010675;28;24498;-75
2022/08/22 11:00:42;;;;;;;4.68;2.60;;;;;;;27.03;32.99;95713.41;5010760;28;24783;-75
2022/08/22 11:03:15;;;;;;;5.18;2.42;;;;;;;26.97;32.15;95714.19;5007711;28;24443;-75
2022/08/22 11:05:44;;;;;;;6.07;2.67;;;;;;;27.01;30.90;95710.09;5010444;28;24428;-74
2022/08/22 11:08:40;;;;;;;4.15;2.33;;;;;;;27.33;32.16;95715.75;5007160;28;24449;-74
2022/08/22 11:11:16;;;;;;;3.72;2.55;;;;;;;26.87;30.87;95716.41;5010750;28;24463;-75
2022/08/22 11:13:57;;;;;;;4.05;2.42;;;;;;;26.83;31.93;95714.34;5012264;28;25001;-75
2022/08/22 11:16:41;;;;;;;5.07;2.60;;;;;;;27.42;32.90;95714.53;5008848;28;24440;-75
2022/08/22 11:19:21;;;;;;;3.33;2.37;;;;;;;27.59;30.77;95709.66;5011332;28;24900;-75
2022/08/22 11:21:59;;;;;;;4.70;2.40;;;;;;;27.65;32.11;95708.00;5010964;28;24467;-76
2022/08/22 11:25:02;;;;;;;5.43;2.80;;;;;;;27.26;31.79;95712.25;5007407;28;24432;-75
2022/08/22 11:27:36;;;;;;;5.15;2.90;;;;;;;27.63;31.02;95707.41;5010093;28;24471;-76
2022/08/22 11:30:06;;;;;;;5.05;2.70;;;;;;;27.63;31.26;95702.06;5012194;28;24526;-75
2022/08/22 11:32:39;;;;;;;5.82;2.95;;;;;;;27.84;32.55;95701.06;5011322;28;24455;-75
2022/08/22 11:35:16;;;;;;;4.70;2.83;;;;;;;27.27;32.66;95696.09;5014949;28;24512;-75
2022/08/22 11:37:52;;;;;;;5.50;2.50;;;;;;;27.47;31.03;95689.97;5014702;28;24445;-75
2022/08/22 11:40:35;;;;;;;4.28;2.72;;;;;;;27.46;32.71;95685.69;5014836;28;24561;-75
2022/08/22 11:43:25;;;;;;;4.15;2.40;;;;;;;27.43;30.11;95689.56;5011873;28;25021;-76
2022/08/22 11:45:56;;;;;;;4.65;2.60;;;;;;;27.42;30.58;95684.44;5012056;28;24834;-76
2022/08/22 11:48:28;;;;;;;6.47;2.63;;;;;;;27.76;31.67;95682.66;5013806;28;24794;-76
2022/08/22 11:51:04;;;;;;;5.60;2.90;;;;;;;27.87;31.50;95684.69;5013545;28;24988;-76
2022/08/22 11:53:41;;;;;;;5.10;2.67;;;;;;;27.78;32.28;95688.59;5011039;28;24487;-76
2022/08/22 11:56:19;;;;;;;5.60;2.97;;;;;;;27.82;31.21;95685.31;5016211;28;24440;-75
2022/08/22 11:58:55;;;;;;;5.43;2.83;;;;;;;27.56;30.28;95694.09;5014130;28;24807;-73
2022/08/22 12:01:28;;;;;;;3.78;2.42;;;;;;;27.25;31.00;95681.34;5016381;28;24439;-76
2022/08/22 12:04:04;;;;;;;3.38;2.50;;;;;;;27.04;30.61;95690.28;5017340;28;24467;-76
2022/08/22 12:06:46;;;;;;;5.63;2.67;;;;;;;27.36;30.31;95686.06;5011176;28;24811;-76
2022/08/22 12:09:25;;;;;;;3.55;2.55;;;;;;;26.92;30.23;95684.75;5016082;28;24483;-76
2022/08/22 12:12:01;;;;;;;4.53;2.42;;;;;;;26.60;30.50;95680.13;5017413;28;24440;-74
2022/08/22 12:14:33;;;;;;;4.20;2.40;;;;;;;27.00;32.15;95686.41;5017423;28;24459;-76
2022/08/22 12:17:13;;;;;;;4.93;2.80;;;;;;;27.45;30.63;95682.19;5015086;28;24818;-76
2022/08/22 12:19:50;;;;;;;4.20;2.50;;;;;;;27.14;31.67;95685.41;5012859;28;25028;-76
2022/08/22 12:22:46;;;;;;;5.00;2.90;;;;;;;27.44;30.89;95682.38;5010859;28;24795;-76
2022/08/22 12:25:30;;;;;;;7.13;2.80;;;;;;;27.31;31.80;95677.88;5006579;28;24525;-76
2022/08/22 12:28:08;;;;;;;3.47;2.40;;;;;;;26.98;30.77;95673.28;5013330;28;25009;-75
2022/08/22 12:30:43;;;;;;;3.30;2.30;;;;;;;26.92;31.08;95674.13;5012329;28;24444;-75
2022/08/22 12:33:30;;;;;;;5.13;2.78;;;;;;;27.50;32.06;95674.41;5005858;28;24463;-76
2022/08/22 12:36:07;;;;;;;5.07;2.70;;;;;;;27.39;31.88;95671.56;5008114;28;24439;-78
2022/08/22 12:38:46;;;;;;;3.60;2.23;;;;;;;27.13;30.82;95672.34;5012617;28;24451;-76